sensor_id;sensor_type;location;lat;lon;timestamp;P1;durP1;ratioP1;P2;durP2;ratioP2
25237;SDS011;13185;50.872;5.306;2023-04-03T00:02:12;6.33;;;3.30;;
25237;SDS011;13185;50.872;5.306;2023-04-03T00:04:38;5.80;;;3.00;;
25237;SDS011;13185;50.872;5.306;2023-04-03T00:07:03;5.23;;;3.33;;
25237;SDS011;13185;50.872;5.306;2023-04-03T00:09:29;6.93;;;2.90;;
25237;SDS011;13185;50.872;5.306;2023-04-03T00:11:55;5.00;;;3.00;;
25237;SDS011;13185;50.872;5.306;2023-04-03T00:14:20;8.23;;;2.90;;
25237;SDS011;13185;50.872;5.306;2023-04-03T00:16:46;5.47;;;3.13;;
25237;SDS011;13185;50.872;5.306;2023-04-03T00:19:11;5.53;;;3.13;;
25237;SDS011;13185;50.872;5.306;2023-04-03T00:21:37;8.10;;;3.23;;
25237;SDS011;13185;50.872;5.306;2023-04-03T00:24:03;5.03;;;3.47;;
25237;SDS011;13185;50.872;5.306;2023-04-03T00:26:29;6.13;;;3.57;;
25237;SDS011;13185;50.872;5.306;2023-04-03T00:28:54;4.73;;;3.10;;
25237;SDS011;13185;50.872;5.306;2023-04-03T00:31:21;6.67;;;3.53;;
25237;SDS011;13185;50.872;5.306;2023-04-03T00:33:46;4.17;;;3.27;;
25237;SDS011;13185;50.872;5.306;2023-04-03T00:36:12;5.77;;;3.07;;
25237;SDS011;13185;50.872;5.306;2023-04-03T00:38:39;7.77;;;3.77;;
25237;SDS011;13185;50.872;5.306;2023-04-03T00:41:05;4.83;;;3.20;;
25237;SDS011;13185;50.872;5.306;2023-04-03T00:43:32;5.13;;;3.80;;
25237;SDS011;13185;50.872;5.306;2023-04-03T00:45:58;4.67;;;3.73;;
25237;SDS011;13185;50.872;5.306;2023-04-03T00:50:52;5.33;;;3.90;;
25237;SDS011;13185;50.872;5.306;2023-04-03T00:53:19;5.50;;;3.40;;
25237;SDS011;13185;50.872;5.306;2023-04-03T00:55:50;7.03;;;3.43;;
25237;SDS011;13185;50.872;5.306;2023-04-03T00:58:19;6.97;;;3.40;;
25237;SDS011;13185;50.872;5.306;2023-04-03T01:00:50;4.43;;;3.50;;
25237;SDS011;13185;50.872;5.306;2023-04-03T01:03:22;6.72;;;3.83;;
25237;SDS011;13185;50.872;5.306;2023-04-03T01:05:48;5.77;;;3.43;;
25237;SDS011;13185;50.872;5.306;2023-04-03T01:08:15;4.83;;;3.50;;
25237;SDS011;13185;50.872;5.306;2023-04-03T01:10:41;5.07;;;3.47;;
25237;SDS011;13185;50.872;5.306;2023-04-03T01:13:18;5.47;;;3.30;;
25237;SDS011;13185;50.872;5.306;2023-04-03T01:15:46;5.70;;;3.57;;
25237;SDS011;13185;50.872;5.306;2023-04-03T01:18:11;3.67;;;3.23;;
25237;SDS011;13185;50.872;5.306;2023-04-03T01:21:05;5.50;;;3.17;;
25237;SDS011;13185;50.872;5.306;2023-04-03T01:23:38;5.40;;;3.33;;
25237;SDS011;13185;50.872;5.306;2023-04-03T01:26:34;5.67;;;3.50;;
25237;SDS011;13185;50.872;5.306;2023-04-03T01:29:00;5.37;;;3.13;;
25237;SDS011;13185;50.872;5.306;2023-04-03T01:31:28;6.73;;;3.50;;
25237;SDS011;13185;50.872;5.306;2023-04-03T01:33:56;5.23;;;3.50;;
25237;SDS011;13185;50.872;5.306;2023-04-03T01:36:23;9.27;;;3.77;;
25237;SDS011;13185;50.872;5.306;2023-04-03T01:38:52;8.77;;;3.63;;
25237;SDS011;13185;50.872;5.306;2023-04-03T01:41:18;7.27;;;3.57;;
25237;SDS011;13185;50.872;5.306;2023-04-03T01:43:46;6.20;;;4.23;;
25237;SDS011;13185;50.872;5.306;2023-04-03T01:46:13;4.93;;;3.67;;
25237;SDS011;13185;50.872;5.306;2023-04-03T01:48:39;8.27;;;4.33;;
25237;SDS011;13185;50.872;5.306;2023-04-03T01:51:05;6.70;;;4.20;;
25237;SDS011;13185;50.872;5.306;2023-04-03T01:53:30;8.20;;;4.20;;
25237;SDS011;13185;50.872;5.306;2023-04-03T01:55:56;5.20;;;3.40;;
25237;SDS011;13185;50.872;5.306;2023-04-03T01:58:22;5.50;;;3.60;;
25237;SDS011;13185;50.872;5.306;2023-04-03T02:00:49;5.43;;;3.70;;
25237;SDS011;13185;50.872;5.306;2023-04-03T02:03:16;4.50;;;3.20;;
25237;SDS011;13185;50.872;5.306;2023-04-03T02:05:42;4.80;;;3.37;;
25237;SDS011;13185;50.872;5.306;2023-04-03T02:08:07;7.20;;;4.00;;
25237;SDS011;13185;50.872;5.306;2023-04-03T02:10:33;5.27;;;3.73;;
25237;SDS011;13185;50.872;5.306;2023-04-03T02:12:59;4.73;;;3.77;;
25237;SDS011;13185;50.872;5.306;2023-04-03T02:15:24;7.23;;;4.27;;
25237;SDS011;13185;50.872;5.306;2023-04-03T02:17:50;4.97;;;3.67;;
25237;SDS011;13185;50.872;5.306;2023-04-03T02:20:16;4.83;;;3.23;;
25237;SDS011;13185;50.872;5.306;2023-04-03T02:22:41;7.57;;;4.10;;
25237;SDS011;13185;50.872;5.306;2023-04-03T02:25:07;5.20;;;3.97;;
25237;SDS011;13185;50.872;5.306;2023-04-03T02:27:33;5.60;;;4.00;;
25237;SDS011;13185;50.872;5.306;2023-04-03T02:29:58;4.23;;;3.67;;
25237;SDS011;13185;50.872;5.306;2023-04-03T02:32:24;6.43;;;3.83;;
25237;SDS011;13185;50.872;5.306;2023-04-03T02:34:50;7.07;;;4.20;;
25237;SDS011;13185;50.872;5.306;2023-04-03T02:37:16;6.77;;;4.57;;
25237;SDS011;13185;50.872;5.306;2023-04-03T02:39:44;9.23;;;4.40;;
25237;SDS011;13185;50.872;5.306;2023-04-03T02:42:10;5.77;;;4.30;;
25237;SDS011;13185;50.872;5.306;2023-04-03T02:44:35;7.83;;;4.30;;
25237;SDS011;13185;50.872;5.306;2023-04-03T02:47:01;6.43;;;4.43;;
25237;SDS011;13185;50.872;5.306;2023-04-03T02:49:27;6.27;;;4.60;;
25237;SDS011;13185;50.872;5.306;2023-04-03T02:51:53;6.27;;;4.30;;
25237;SDS011;13185;50.872;5.306;2023-04-03T02:54:19;9.77;;;4.80;;
25237;SDS011;13185;50.872;5.306;2023-04-03T02:56:49;7.47;;;4.13;;
25237;SDS011;13185;50.872;5.306;2023-04-03T02:59:14;5.80;;;3.77;;
25237;SDS011;13185;50.872;5.306;2023-04-03T03:01:40;5.27;;;4.13;;
25237;SDS011;13185;50.872;5.306;2023-04-03T03:04:06;5.47;;;4.37;;
25237;SDS011;13185;50.872;5.306;2023-04-03T03:06:31;6.70;;;4.30;;
25237;SDS011;13185;50.872;5.306;2023-04-03T03:08:57;5.60;;;3.83;;
25237;SDS011;13185;50.872;5.306;2023-04-03T03:11:23;5.17;;;3.43;;
25237;SDS011;13185;50.872;5.306;2023-04-03T03:13:48;7.60;;;6.87;;
25237;SDS011;13185;50.872;5.306;2023-04-03T03:16:14;7.93;;;6.93;;
25237;SDS011;13185;50.872;5.306;2023-04-03T03:18:39;8.47;;;5.57;;
25237;SDS011;13185;50.872;5.306;2023-04-03T03:21:05;6.37;;;5.70;;
25237;SDS011;13185;50.872;5.306;2023-04-03T03:23:31;7.10;;;4.83;;
25237;SDS011;13185;50.872;5.306;2023-04-03T03:25:57;5.93;;;5.23;;
25237;SDS011;13185;50.872;5.306;2023-04-03T03:28:24;6.90;;;4.87;;
25237;SDS011;13185;50.872;5.306;2023-04-03T03:30:50;7.20;;;4.30;;
25237;SDS011;13185;50.872;5.306;2023-04-03T03:33:17;5.80;;;4.53;;
25237;SDS011;13185;50.872;5.306;2023-04-03T03:35:43;8.53;;;4.80;;
25237;SDS011;13185;50.872;5.306;2023-04-03T03:38:09;6.20;;;4.00;;
25237;SDS011;13185;50.872;5.306;2023-04-03T03:40:35;8.57;;;4.97;;
25237;SDS011;13185;50.872;5.306;2023-04-03T03:43:01;7.73;;;4.40;;
25237;SDS011;13185;50.872;5.306;2023-04-03T03:45:26;6.50;;;4.63;;
25237;SDS011;13185;50.872;5.306;2023-04-03T03:47:52;6.23;;;3.90;;
25237;SDS011;13185;50.872;5.306;2023-04-03T03:50:17;7.47;;;4.17;;
25237;SDS011;13185;50.872;5.306;2023-04-03T03:52:43;5.83;;;4.07;;
25237;SDS011;13185;50.872;5.306;2023-04-03T03:55:10;5.63;;;3.87;;
25237;SDS011;13185;50.872;5.306;2023-04-03T03:57:36;5.80;;;4.37;;
25237;SDS011;13185;50.872;5.306;2023-04-03T04:00:02;6.97;;;4.97;;
25237;SDS011;13185;50.872;5.306;2023-04-03T04:02:29;5.27;;;3.97;;
25237;SDS011;13185;50.872;5.306;2023-04-03T04:04:56;5.20;;;3.80;;
25237;SDS011;13185;50.872;5.306;2023-04-03T04:07:21;4.60;;;3.70;;
25237;SDS011;13185;50.872;5.306;2023-04-03T04:09:47;6.77;;;4.17;;
25237;SDS011;13185;50.872;5.306;2023-04-03T04:12:13;5.37;;;3.80;;
25237;SDS011;13185;50.872;5.306;2023-04-03T04:14:39;6.27;;;4.13;;
25237;SDS011;13185;50.872;5.306;2023-04-03T04:17:07;4.60;;;3.93;;
25237;SDS011;13185;50.872;5.306;2023-04-03T04:19:34;5.07;;;4.53;;
25237;SDS011;13185;50.872;5.306;2023-04-03T04:22:00;7.47;;;4.97;;
25237;SDS011;13185;50.872;5.306;2023-04-03T04:24:25;8.53;;;4.60;;
25237;SDS011;13185;50.872;5.306;2023-04-03T04:26:53;7.60;;;4.40;;
25237;SDS011;13185;50.872;5.306;2023-04-03T04:29:19;6.90;;;4.50;;
25237;SDS011;13185;50.872;5.306;2023-04-03T04:31:48;7.33;;;4.23;;
25237;SDS011;13185;50.872;5.306;2023-04-03T04:34:13;5.93;;;4.70;;
25237;SDS011;13185;50.872;5.306;2023-04-03T04:36:39;5.67;;;4.33;;
25237;SDS011;13185;50.872;5.306;2023-04-03T04:39:05;6.37;;;4.60;;
25237;SDS011;13185;50.872;5.306;2023-04-03T04:41:31;4.40;;;4.00;;
25237;SDS011;13185;50.872;5.306;2023-04-03T04:43:57;5.67;;;4.27;;
25237;SDS011;13185;50.872;5.306;2023-04-03T04:46:23;6.03;;;3.63;;
25237;SDS011;13185;50.872;5.306;2023-04-03T04:48:53;6.67;;;5.00;;
25237;SDS011;13185;50.872;5.306;2023-04-03T04:51:20;9.17;;;4.60;;
25237;SDS011;13185;50.872;5.306;2023-04-03T04:53:46;6.30;;;4.33;;
25237;SDS011;13185;50.872;5.306;2023-04-03T04:56:14;7.77;;;4.30;;
25237;SDS011;13185;50.872;5.306;2023-04-03T04:58:41;6.77;;;4.40;;
25237;SDS011;13185;50.872;5.306;2023-04-03T05:01:08;11.47;;;4.90;;
25237;SDS011;13185;50.872;5.306;2023-04-03T05:03:42;5.70;;;4.20;;
25237;SDS011;13185;50.872;5.306;2023-04-03T05:06:08;8.57;;;4.87;;
25237;SDS011;13185;50.872;5.306;2023-04-03T05:08:35;5.77;;;4.40;;
25237;SDS011;13185;50.872;5.306;2023-04-03T05:11:01;7.03;;;4.77;;
25237;SDS011;13185;50.872;5.306;2023-04-03T05:13:27;9.67;;;4.77;;
25237;SDS011;13185;50.872;5.306;2023-04-03T05:15:54;7.30;;;4.37;;
25237;SDS011;13185;50.872;5.306;2023-04-03T05:18:20;6.07;;;4.43;;
25237;SDS011;13185;50.872;5.306;2023-04-03T05:20:47;6.23;;;4.37;;
25237;SDS011;13185;50.872;5.306;2023-04-03T05:23:16;7.90;;;4.63;;
25237;SDS011;13185;50.872;5.306;2023-04-03T05:25:42;6.20;;;4.33;;
25237;SDS011;13185;50.872;5.306;2023-04-03T05:28:11;8.63;;;4.97;;
25237;SDS011;13185;50.872;5.306;2023-04-03T05:30:37;6.60;;;4.23;;
25237;SDS011;13185;50.872;5.306;2023-04-03T05:33:03;8.77;;;5.03;;
25237;SDS011;13185;50.872;5.306;2023-04-03T05:35:41;7.23;;;5.60;;
25237;SDS011;13185;50.872;5.306;2023-04-03T05:38:10;10.17;;;5.10;;
25237;SDS011;13185;50.872;5.306;2023-04-03T05:40:36;7.77;;;5.50;;
25237;SDS011;13185;50.872;5.306;2023-04-03T05:43:02;9.07;;;6.00;;
25237;SDS011;13185;50.872;5.306;2023-04-03T05:45:32;8.73;;;5.40;;
25237;SDS011;13185;50.872;5.306;2023-04-03T05:47:57;8.37;;;5.27;;
25237;SDS011;13185;50.872;5.306;2023-04-03T05:50:23;7.97;;;4.77;;
25237;SDS011;13185;50.872;5.306;2023-04-03T05:52:51;6.50;;;4.40;;
25237;SDS011;13185;50.872;5.306;2023-04-03T05:55:20;7.30;;;5.20;;
25237;SDS011;13185;50.872;5.306;2023-04-03T05:57:46;5.87;;;4.80;;
25237;SDS011;13185;50.872;5.306;2023-04-03T06:00:14;6.00;;;5.17;;
25237;SDS011;13185;50.872;5.306;2023-04-03T06:02:45;10.80;;;5.70;;
25237;SDS011;13185;50.872;5.306;2023-04-03T06:05:17;5.80;;;4.83;;
25237;SDS011;13185;50.872;5.306;2023-04-03T06:07:42;8.60;;;5.53;;
25237;SDS011;13185;50.872;5.306;2023-04-03T06:10:10;10.97;;;6.13;;
25237;SDS011;13185;50.872;5.306;2023-04-03T06:12:36;13.23;;;6.97;;
25237;SDS011;13185;50.872;5.306;2023-04-03T06:15:03;7.63;;;6.83;;
25237;SDS011;13185;50.872;5.306;2023-04-03T06:17:29;11.47;;;6.97;;
25237;SDS011;13185;50.872;5.306;2023-04-03T06:19:55;9.43;;;7.33;;
25237;SDS011;13185;50.872;5.306;2023-04-03T06:22:23;9.33;;;6.83;;
25237;SDS011;13185;50.872;5.306;2023-04-03T06:24:50;9.33;;;7.17;;
25237;SDS011;13185;50.872;5.306;2023-04-03T06:27:16;9.17;;;6.83;;
25237;SDS011;13185;50.872;5.306;2023-04-03T06:29:41;10.07;;;6.93;;
25237;SDS011;13185;50.872;5.306;2023-04-03T06:32:08;8.73;;;6.47;;
25237;SDS011;13185;50.872;5.306;2023-04-03T06:34:33;9.63;;;6.90;;
25237;SDS011;13185;50.872;5.306;2023-04-03T06:36:59;10.07;;;7.13;;
25237;SDS011;13185;50.872;5.306;2023-04-03T06:39:24;12.03;;;7.30;;
25237;SDS011;13185;50.872;5.306;2023-04-03T06:41:50;11.63;;;6.80;;
25237;SDS011;13185;50.872;5.306;2023-04-03T06:44:17;8.47;;;6.40;;
25237;SDS011;13185;50.872;5.306;2023-04-03T06:46:43;7.23;;;5.80;;
25237;SDS011;13185;50.872;5.306;2023-04-03T06:49:10;10.40;;;6.57;;
25237;SDS011;13185;50.872;5.306;2023-04-03T06:51:36;9.23;;;6.57;;
25237;SDS011;13185;50.872;5.306;2023-04-03T06:54:02;11.83;;;6.23;;
25237;SDS011;13185;50.872;5.306;2023-04-03T06:56:30;10.50;;;6.47;;
25237;SDS011;13185;50.872;5.306;2023-04-03T06:58:56;7.60;;;6.47;;
25237;SDS011;13185;50.872;5.306;2023-04-03T07:01:26;10.57;;;7.20;;
25237;SDS011;13185;50.872;5.306;2023-04-03T07:03:53;11.77;;;6.43;;
25237;SDS011;13185;50.872;5.306;2023-04-03T07:06:19;10.63;;;5.87;;
25237;SDS011;13185;50.872;5.306;2023-04-03T07:08:45;8.77;;;5.03;;
25237;SDS011;13185;50.872;5.306;2023-04-03T07:11:13;6.60;;;5.30;;
25237;SDS011;13185;50.872;5.306;2023-04-03T07:13:38;7.77;;;5.63;;
25237;SDS011;13185;50.872;5.306;2023-04-03T07:16:05;8.20;;;5.50;;
25237;SDS011;13185;50.872;5.306;2023-04-03T07:18:31;7.13;;;5.20;;
25237;SDS011;13185;50.872;5.306;2023-04-03T07:20:57;7.27;;;4.80;;
25237;SDS011;13185;50.872;5.306;2023-04-03T07:23:23;9.53;;;4.27;;
25237;SDS011;13185;50.872;5.306;2023-04-03T07:25:50;6.50;;;3.83;;
25237;SDS011;13185;50.872;5.306;2023-04-03T07:28:17;7.03;;;3.43;;
25237;SDS011;13185;50.872;5.306;2023-04-03T07:30:47;9.23;;;4.70;;
25237;SDS011;13185;50.872;5.306;2023-04-03T07:33:16;7.00;;;4.10;;
25237;SDS011;13185;50.872;5.306;2023-04-03T07:35:44;6.27;;;4.00;;
25237;SDS011;13185;50.872;5.306;2023-04-03T07:38:10;6.67;;;3.77;;
25237;SDS011;13185;50.872;5.306;2023-04-03T07:40:37;8.27;;;3.93;;
25237;SDS011;13185;50.872;5.306;2023-04-03T07:43:03;4.80;;;3.63;;
25237;SDS011;13185;50.872;5.306;2023-04-03T07:45:29;5.87;;;3.40;;
25237;SDS011;13185;50.872;5.306;2023-04-03T07:47:54;6.30;;;3.73;;
25237;SDS011;13185;50.872;5.306;2023-04-03T07:50:20;7.03;;;3.90;;
25237;SDS011;13185;50.872;5.306;2023-04-03T07:52:46;7.47;;;3.87;;
25237;SDS011;13185;50.872;5.306;2023-04-03T07:55:12;7.73;;;3.67;;
25237;SDS011;13185;50.872;5.306;2023-04-03T07:57:38;7.40;;;3.63;;
25237;SDS011;13185;50.872;5.306;2023-04-03T08:00:04;8.03;;;3.67;;
25237;SDS011;13185;50.872;5.306;2023-04-03T08:02:37;5.65;;;3.33;;
25237;SDS011;13185;50.872;5.306;2023-04-03T08:05:02;8.50;;;4.27;;
25237;SDS011;13185;50.872;5.306;2023-04-03T08:07:28;4.33;;;2.80;;
25237;SDS011;13185;50.872;5.306;2023-04-03T08:09:54;5.43;;;2.60;;
25237;SDS011;13185;50.872;5.306;2023-04-03T08:12:19;4.87;;;3.00;;
25237;SDS011;13185;50.872;5.306;2023-04-03T08:14:45;5.43;;;3.10;;
25237;SDS011;13185;50.872;5.306;2023-04-03T08:17:10;8.17;;;2.67;;
25237;SDS011;13185;50.872;5.306;2023-04-03T08:19:39;5.37;;;3.00;;
25237;SDS011;13185;50.872;5.306;2023-04-03T08:22:06;5.07;;;3.20;;
25237;SDS011;13185;50.872;5.306;2023-04-03T08:24:32;10.77;;;3.00;;
25237;SDS011;13185;50.872;5.306;2023-04-03T08:26:58;5.00;;;2.80;;
25237;SDS011;13185;50.872;5.306;2023-04-03T08:29:24;5.77;;;2.60;;
25237;SDS011;13185;50.872;5.306;2023-04-03T08:34:42;7.67;;;3.13;;
25237;SDS011;13185;50.872;5.306;2023-04-03T08:37:08;7.63;;;2.40;;
25237;SDS011;13185;50.872;5.306;2023-04-03T08:39:33;6.18;;;2.20;;
25237;SDS011;13185;50.872;5.306;2023-04-03T08:42:01;4.17;;;2.13;;
25237;SDS011;13185;50.872;5.306;2023-04-03T08:49:33;6.05;;;3.05;;
25237;SDS011;13185;50.872;5.306;2023-04-03T08:52:09;4.28;;;2.00;;
25237;SDS011;13185;50.872;5.306;2023-04-03T08:54:51;5.78;;;2.20;;
25237;SDS011;13185;50.872;5.306;2023-04-03T08:57:29;4.90;;;1.92;;
25237;SDS011;13185;50.872;5.306;2023-04-03T08:59:59;5.85;;;1.83;;
25237;SDS011;13185;50.872;5.306;2023-04-03T09:02:30;7.25;;;2.33;;
25237;SDS011;13185;50.872;5.306;2023-04-03T09:05:01;5.80;;;2.53;;
25237;SDS011;13185;50.872;5.306;2023-04-03T09:07:39;5.75;;;2.13;;
25237;SDS011;13185;50.872;5.306;2023-04-03T09:10:10;4.93;;;1.92;;
25237;SDS011;13185;50.872;5.306;2023-04-03T09:12:42;4.55;;;2.08;;
25237;SDS011;13185;50.872;5.306;2023-04-03T09:15:17;6.68;;;2.38;;
25237;SDS011;13185;50.872;5.306;2023-04-03T09:23:18;2.57;;;1.47;;
25237;SDS011;13185;50.872;5.306;2023-04-03T09:25:44;7.40;;;1.58;;
25237;SDS011;13185;50.872;5.306;2023-04-03T09:28:10;2.08;;;1.35;;
25237;SDS011;13185;50.872;5.306;2023-04-03T09:30:37;4.78;;;1.73;;
25237;SDS011;13185;50.872;5.306;2023-04-03T09:33:06;3.17;;;1.27;;
25237;SDS011;13185;50.872;5.306;2023-04-03T09:35:33;2.97;;;1.15;;
25237;SDS011;13185;50.872;5.306;2023-04-03T09:40:37;2.72;;;0.93;;
25237;SDS011;13185;50.872;5.306;2023-04-03T09:46:16;3.65;;;1.10;;
25237;SDS011;13185;50.872;5.306;2023-04-03T09:48:51;2.88;;;1.00;;
25237;SDS011;13185;50.872;5.306;2023-04-03T09:51:25;2.60;;;1.23;;
25237;SDS011;13185;50.872;5.306;2023-04-03T09:53:52;4.80;;;1.38;;
25237;SDS011;13185;50.872;5.306;2023-04-03T09:58:48;3.65;;;1.40;;
25237;SDS011;13185;50.872;5.306;2023-04-03T10:01:30;4.60;;;1.55;;
25237;SDS011;13185;50.872;5.306;2023-04-03T10:04:07;3.88;;;1.40;;
25237;SDS011;13185;50.872;5.306;2023-04-03T10:06:41;3.55;;;1.25;;
25237;SDS011;13185;50.872;5.306;2023-04-03T10:09:30;3.20;;;1.25;;
25237;SDS011;13185;50.872;5.306;2023-04-03T10:14:23;2.45;;;1.08;;
25237;SDS011;13185;50.872;5.306;2023-04-03T10:16:52;3.78;;;0.95;;
25237;SDS011;13185;50.872;5.306;2023-04-03T10:19:45;3.30;;;1.23;;
25237;SDS011;13185;50.872;5.306;2023-04-03T10:24:54;4.55;;;1.10;;
25237;SDS011;13185;50.872;5.306;2023-04-03T10:30:10;1.77;;;0.95;;
25237;SDS011;13185;50.872;5.306;2023-04-03T10:32:45;1.75;;;0.73;;
25237;SDS011;13185;50.872;5.306;2023-04-03T10:35:17;3.53;;;1.00;;
25237;SDS011;13185;50.872;5.306;2023-04-03T10:38:04;1.85;;;0.80;;
25237;SDS011;13185;50.872;5.306;2023-04-03T10:46:13;1.73;;;0.57;;
25237;SDS011;13185;50.872;5.306;2023-04-03T10:51:24;3.78;;;1.00;;
25237;SDS011;13185;50.872;5.306;2023-04-03T10:54:05;2.38;;;0.70;;
25237;SDS011;13185;50.872;5.306;2023-04-03T10:56:38;2.10;;;0.40;;
25237;SDS011;13185;50.872;5.306;2023-04-03T11:01:59;3.08;;;0.50;;
25237;SDS011;13185;50.872;5.306;2023-04-03T11:04:28;3.63;;;0.43;;
25237;SDS011;13185;50.872;5.306;2023-04-03T11:09:37;1.45;;;0.60;;
25237;SDS011;13185;50.872;5.306;2023-04-03T11:12:17;2.17;;;0.60;;
25237;SDS011;13185;50.872;5.306;2023-04-03T11:14:48;3.03;;;0.60;;
25237;SDS011;13185;50.872;5.306;2023-04-03T11:20:03;1.13;;;0.43;;
25237;SDS011;13185;50.872;5.306;2023-04-03T11:22:50;2.63;;;0.40;;
25237;SDS011;13185;50.872;5.306;2023-04-03T11:25:24;3.33;;;0.50;;
25237;SDS011;13185;50.872;5.306;2023-04-03T11:27:54;2.05;;;0.60;;
25237;SDS011;13185;50.872;5.306;2023-04-03T11:30:23;4.75;;;1.40;;
25237;SDS011;13185;50.872;5.306;2023-04-03T11:36:00;3.45;;;0.98;;
25237;SDS011;13185;50.872;5.306;2023-04-03T11:38:36;3.78;;;0.68;;
25237;SDS011;13185;50.872;5.306;2023-04-03T11:41:07;3.75;;;0.70;;
25237;SDS011;13185;50.872;5.306;2023-04-03T11:43:39;2.50;;;0.50;;
25237;SDS011;13185;50.872;5.306;2023-04-03T11:46:07;2.45;;;0.70;;
25237;SDS011;13185;50.872;5.306;2023-04-03T11:51:37;4.75;;;0.75;;
25237;SDS011;13185;50.872;5.306;2023-04-03T11:53:54;1.33;;;0.50;;
25237;SDS011;13185;50.872;5.306;2023-04-03T11:56:39;2.45;;;0.77;;
25237;SDS011;13185;50.872;5.306;2023-04-03T12:04:14;3.15;;;0.80;;
25237;SDS011;13185;50.872;5.306;2023-04-03T12:09:22;2.58;;;0.95;;
25237;SDS011;13185;50.872;5.306;2023-04-03T12:12:37;6.63;;;1.00;;
25237;SDS011;13185;50.872;5.306;2023-04-03T12:15:16;3.90;;;0.73;;
25237;SDS011;13185;50.872;5.306;2023-04-03T12:17:44;2.22;;;0.80;;
25237;SDS011;13185;50.872;5.306;2023-04-03T12:28:44;1.65;;;0.85;;
25237;SDS011;13185;50.872;5.306;2023-04-03T12:31:11;5.70;;;0.90;;
25237;SDS011;13185;50.872;5.306;2023-04-03T12:39:33;4.57;;;0.77;;
25237;SDS011;13185;50.872;5.306;2023-04-03T12:42:15;2.10;;;0.90;;
25237;SDS011;13185;50.872;5.306;2023-04-03T12:47:35;1.83;;;0.75;;
25237;SDS011;13185;50.872;5.306;2023-04-03T12:50:16;4.85;;;0.98;;
25237;SDS011;13185;50.872;5.306;2023-04-03T12:52:48;3.55;;;0.73;;
25237;SDS011;13185;50.872;5.306;2023-04-03T12:55:21;2.53;;;0.80;;
25237;SDS011;13185;50.872;5.306;2023-04-03T12:57:47;4.90;;;0.90;;
25237;SDS011;13185;50.872;5.306;2023-04-03T13:02:57;6.38;;;0.98;;
25237;SDS011;13185;50.872;5.306;2023-04-03T13:05:24;3.83;;;0.80;;
25237;SDS011;13185;50.872;5.306;2023-04-03T13:07:52;5.47;;;0.80;;
25237;SDS011;13185;50.872;5.306;2023-04-03T13:10:23;3.67;;;0.90;;
25237;SDS011;13185;50.872;5.306;2023-04-03T13:15:19;3.17;;;0.93;;
25237;SDS011;13185;50.872;5.306;2023-04-03T13:17:50;6.65;;;1.55;;
25237;SDS011;13185;50.872;5.306;2023-04-03T13:22:50;4.47;;;1.05;;
25237;SDS011;13185;50.872;5.306;2023-04-03T13:25:21;2.67;;;1.08;;
25237;SDS011;13185;50.872;5.306;2023-04-03T13:27:49;3.28;;;1.05;;
25237;SDS011;13185;50.872;5.306;2023-04-03T13:30:26;2.38;;;1.10;;
25237;SDS011;13185;50.872;5.306;2023-04-03T13:32:58;2.50;;;1.20;;
25237;SDS011;13185;50.872;5.306;2023-04-03T13:37:56;3.10;;;1.10;;
25237;SDS011;13185;50.872;5.306;2023-04-03T13:40:23;3.83;;;1.15;;
25237;SDS011;13185;50.872;5.306;2023-04-03T13:43:14;4.72;;;0.90;;
25237;SDS011;13185;50.872;5.306;2023-04-03T13:48:35;6.10;;;1.10;;
25237;SDS011;13185;50.872;5.306;2023-04-03T13:51:04;4.32;;;1.40;;
25237;SDS011;13185;50.872;5.306;2023-04-03T13:53:46;3.85;;;0.82;;
25237;SDS011;13185;50.872;5.306;2023-04-03T13:56:23;3.53;;;0.50;;
25237;SDS011;13185;50.872;5.306;2023-04-03T14:04:12;4.78;;;1.17;;
25237;SDS011;13185;50.872;5.306;2023-04-03T14:06:47;2.38;;;0.77;;
25237;SDS011;13185;50.872;5.306;2023-04-03T14:09:13;1.77;;;0.90;;
25237;SDS011;13185;50.872;5.306;2023-04-03T14:11:39;4.00;;;1.00;;
25237;SDS011;13185;50.872;5.306;2023-04-03T14:14:16;3.40;;;1.15;;
25237;SDS011;13185;50.872;5.306;2023-04-03T14:16:48;1.90;;;1.13;;
25237;SDS011;13185;50.872;5.306;2023-04-03T14:19:19;3.75;;;0.90;;
25237;SDS011;13185;50.872;5.306;2023-04-03T14:21:47;2.08;;;0.95;;
25237;SDS011;13185;50.872;5.306;2023-04-03T14:24:13;2.42;;;0.93;;
25237;SDS011;13185;50.872;5.306;2023-04-03T14:26:38;2.33;;;0.88;;
25237;SDS011;13185;50.872;5.306;2023-04-03T14:29:04;3.28;;;1.02;;
25237;SDS011;13185;50.872;5.306;2023-04-03T14:31:30;0.85;;;0.60;;
25237;SDS011;13185;50.872;5.306;2023-04-03T14:33:55;2.83;;;1.00;;
25237;SDS011;13185;50.872;5.306;2023-04-03T14:36:22;3.75;;;1.20;;
25237;SDS011;13185;50.872;5.306;2023-04-03T14:38:50;3.13;;;0.90;;
25237;SDS011;13185;50.872;5.306;2023-04-03T14:41:18;2.63;;;1.02;;
25237;SDS011;13185;50.872;5.306;2023-04-03T14:43:46;2.45;;;1.00;;
25237;SDS011;13185;50.872;5.306;2023-04-03T14:46:17;5.13;;;0.90;;
25237;SDS011;13185;50.872;5.306;2023-04-03T14:48:54;1.80;;;0.85;;
25237;SDS011;13185;50.872;5.306;2023-04-03T14:51:20;2.75;;;0.98;;
25237;SDS011;13185;50.872;5.306;2023-04-03T14:53:46;3.17;;;0.80;;
25237;SDS011;13185;50.872;5.306;2023-04-03T14:56:13;2.88;;;1.00;;
25237;SDS011;13185;50.872;5.306;2023-04-03T14:58:40;4.22;;;1.10;;
25237;SDS011;13185;50.872;5.306;2023-04-03T15:01:06;2.75;;;0.90;;
25237;SDS011;13185;50.872;5.306;2023-04-03T15:03:31;2.78;;;0.68;;
25237;SDS011;13185;50.872;5.306;2023-04-03T15:05:57;2.58;;;0.93;;
25237;SDS011;13185;50.872;5.306;2023-04-03T15:08:24;3.47;;;0.43;;
25237;SDS011;13185;50.872;5.306;2023-04-03T15:10:52;2.47;;;0.90;;
25237;SDS011;13185;50.872;5.306;2023-04-03T15:13:18;2.63;;;0.98;;
25237;SDS011;13185;50.872;5.306;2023-04-03T15:15:45;2.20;;;1.00;;
25237;SDS011;13185;50.872;5.306;2023-04-03T15:18:15;5.13;;;1.00;;
25237;SDS011;13185;50.872;5.306;2023-04-03T15:20:44;2.05;;;0.80;;
25237;SDS011;13185;50.872;5.306;2023-04-03T15:23:12;3.22;;;0.80;;
25237;SDS011;13185;50.872;5.306;2023-04-03T15:25:41;2.15;;;0.80;;
25237;SDS011;13185;50.872;5.306;2023-04-03T15:28:18;4.40;;;1.02;;
25237;SDS011;13185;50.872;5.306;2023-04-03T15:30:53;4.88;;;0.82;;
25237;SDS011;13185;50.872;5.306;2023-04-03T15:33:19;1.73;;;0.90;;
25237;SDS011;13185;50.872;5.306;2023-04-03T15:35:44;1.88;;;0.65;;
25237;SDS011;13185;50.872;5.306;2023-04-03T15:38:10;1.73;;;0.63;;
25237;SDS011;13185;50.872;5.306;2023-04-03T15:40:36;2.83;;;0.80;;
25237;SDS011;13185;50.872;5.306;2023-04-03T15:43:02;1.20;;;0.57;;
25237;SDS011;13185;50.872;5.306;2023-04-03T15:45:28;3.28;;;0.80;;
25237;SDS011;13185;50.872;5.306;2023-04-03T15:47:55;1.25;;;0.57;;
25237;SDS011;13185;50.872;5.306;2023-04-03T15:50:21;2.03;;;0.63;;
25237;SDS011;13185;50.872;5.306;2023-04-03T15:52:48;3.28;;;0.55;;
25237;SDS011;13185;50.872;5.306;2023-04-03T15:55:19;2.13;;;0.95;;
25237;SDS011;13185;50.872;5.306;2023-04-03T15:57:46;2.60;;;0.60;;
25237;SDS011;13185;50.872;5.306;2023-04-03T16:00:11;4.75;;;1.13;;
25237;SDS011;13185;50.872;5.306;2023-04-03T16:02:37;3.00;;;0.82;;
25237;SDS011;13185;50.872;5.306;2023-04-03T16:05:03;3.40;;;0.80;;
25237;SDS011;13185;50.872;5.306;2023-04-03T16:07:29;1.98;;;0.70;;
25237;SDS011;13185;50.872;5.306;2023-04-03T16:09:55;2.25;;;0.85;;
25237;SDS011;13185;50.872;5.306;2023-04-03T16:12:21;3.88;;;1.13;;
25237;SDS011;13185;50.872;5.306;2023-04-03T16:14:47;3.45;;;0.65;;
25237;SDS011;13185;50.872;5.306;2023-04-03T16:17:12;2.20;;;0.88;;
25237;SDS011;13185;50.872;5.306;2023-04-03T16:19:38;2.45;;;0.90;;
25237;SDS011;13185;50.872;5.306;2023-04-03T16:22:03;2.30;;;0.70;;
25237;SDS011;13185;50.872;5.306;2023-04-03T16:24:29;5.57;;;1.17;;
25237;SDS011;13185;50.872;5.306;2023-04-03T16:26:54;2.50;;;0.98;;
25237;SDS011;13185;50.872;5.306;2023-04-03T16:29:20;3.30;;;1.20;;
25237;SDS011;13185;50.872;5.306;2023-04-03T16:31:46;4.35;;;1.80;;
25237;SDS011;13185;50.872;5.306;2023-04-03T16:34:11;2.28;;;0.80;;